createdAt,value
2023-03-06T06:03:35.688Z,30.22
2023-03-06T06:04:36.617Z,30.22
2023-03-06T06:05:35.647Z,30.18
2023-03-06T06:06:36.686Z,30.25
2023-03-06T06:07:35.723Z,30.26
2023-03-06T06:08:36.748Z,30.25
2023-03-06T06:09:36.775Z,30.21
2023-03-06T06:10:36.777Z,30.27
2023-03-06T06:11:36.805Z,30.24
2023-03-06T06:12:36.812Z,30.25
2023-03-06T06:13:36.799Z,30.21
2023-03-06T06:14:36.790Z,30.28
2023-03-06T06:15:36.846Z,30.28
2023-03-06T06:16:36.774Z,30.26
2023-03-06T06:17:36.760Z,30.23
2023-03-06T06:18:38.685Z,30.25
2023-03-06T06:19:36.789Z,30.28
2023-03-06T06:20:36.762Z,30.24
2023-03-06T06:21:36.753Z,30.28
2023-03-06T06:22:36.744Z,30.27
2023-03-06T06:23:36.731Z,30.30
2023-03-06T06:24:36.720Z,30.36
2023-03-06T06:25:36.717Z,30.34
2023-03-06T06:26:36.701Z,30.39
2023-03-06T06:27:36.689Z,30.79
2023-03-06T06:28:36.730Z,30.61
2023-03-06T06:29:36.683Z,30.60
2023-03-06T06:30:36.678Z,30.60
2023-03-06T06:31:36.665Z,30.76
2023-03-06T06:32:35.732Z,30.69
2023-03-06T06:33:36.650Z,30.60
2023-03-06T06:34:36.648Z,30.79
2023-03-06T06:35:36.756Z,30.88
2023-03-06T06:36:35.643Z,31.01
2023-03-06T06:37:36.674Z,30.99
2023-03-06T06:38:36.620Z,31.15
2023-03-06T06:39:35.626Z,31.27
2023-03-06T06:40:36.602Z,31.24
2023-03-06T06:41:54.858Z,31.42
2023-03-06T06:42:39.818Z,32.59
2023-03-06T06:43:36.596Z,32.97
2023-03-06T06:44:36.612Z,33.53
2023-03-06T06:45:35.564Z,33.02
2023-03-06T06:47:36.556Z,33.28
2023-03-06T06:48:36.554Z,33.26
2023-03-06T06:49:36.577Z,33.64
2023-03-06T06:50:36.554Z,33.60
2023-03-06T06:51:36.568Z,33.89
2023-03-06T06:52:36.538Z,34.53
2023-03-06T06:53:36.517Z,34.86
2023-03-06T06:54:36.509Z,35.08
2023-03-06T06:55:36.498Z,35.16
2023-03-06T06:56:36.498Z,35.31
2023-03-06T06:57:36.500Z,35.37
2023-03-06T06:58:36.502Z,35.52
2023-03-06T06:59:36.471Z,36.08
2023-03-06T07:00:36.466Z,36.12
2023-03-06T07:01:36.539Z,36.88
2023-03-06T07:02:36.496Z,37.04
2023-03-06T07:03:36.486Z,37.26
2023-03-06T07:04:36.472Z,36.79
2023-03-06T07:05:36.443Z,35.25
2023-03-06T07:06:35.430Z,35.43
2023-03-06T07:07:36.566Z,30.63
2023-03-06T07:08:35.406Z,33.18
2023-03-06T07:09:36.388Z,30.23
2023-03-06T07:10:36.398Z,31.85
2023-03-06T07:11:36.404Z,29.53
2023-03-06T07:12:36.398Z,29.69
2023-03-06T07:13:36.377Z,30.90
2023-03-06T07:14:36.363Z,32.24
2023-03-06T07:15:36.410Z,32.56
2023-03-06T07:16:36.336Z,32.66
2023-03-06T07:17:36.356Z,31.12
2023-03-06T07:18:35.332Z,30.53
2023-03-06T07:19:37.970Z,30.91
2023-03-06T07:20:35.311Z,30.66
2023-03-06T07:21:36.330Z,30.69
2023-03-06T07:22:49.836Z,31.29
2023-03-06T07:23:36.310Z,31.22
2023-03-06T07:24:36.296Z,31.45
2023-03-06T07:25:36.275Z,32.46
2023-03-06T07:26:36.304Z,32.13
2023-03-06T07:27:36.328Z,32.49
2023-03-06T07:28:51.305Z,32.71
2023-03-06T07:29:36.244Z,32.84
2023-03-06T07:30:36.256Z,32.87
2023-03-06T07:31:35.289Z,33.06
2023-03-06T07:32:36.273Z,33.24
2023-03-06T07:33:36.238Z,33.32
2023-03-06T07:34:36.255Z,33.49
2023-03-06T07:35:36.252Z,33.55
2023-03-06T07:36:36.202Z,33.36
2023-03-06T07:37:36.213Z,33.71
2023-03-06T07:38:36.186Z,33.88
2023-03-06T07:39:36.222Z,34.01
2023-03-06T07:40:36.182Z,33.99
2023-03-06T07:41:35.185Z,34.37
2023-03-06T07:42:35.162Z,34.32
2023-03-06T07:43:36.166Z,34.34
2023-03-06T07:44:36.198Z,34.89
2023-03-06T07:45:35.141Z,34.60
2023-03-06T07:46:36.196Z,34.97
2023-03-06T07:47:36.149Z,35.03
2023-03-06T07:48:36.138Z,35.07
2023-03-06T07:49:36.125Z,35.30
2023-03-06T07:50:35.128Z,35.23
2023-03-06T07:51:35.125Z,35.23
2023-03-06T07:52:35.116Z,35.54
2023-03-06T07:53:36.521Z,35.51
2023-03-06T07:54:36.091Z,35.52
2023-03-06T07:55:37.033Z,35.65
2023-03-06T07:56:36.068Z,35.74
2023-03-06T07:57:36.079Z,35.76
2023-03-06T07:58:36.571Z,35.85
2023-03-06T07:59:36.056Z,35.83
2023-03-06T08:00:36.031Z,35.98
2023-03-06T08:01:36.047Z,36.10
2023-03-06T08:02:37.041Z,35.95
2023-03-06T08:03:36.066Z,36.25
2023-03-06T08:04:36.015Z,36.46
2023-03-06T08:05:36.003Z,36.30
2023-03-06T08:06:36.005Z,36.62
2023-03-06T08:07:35.974Z,36.89
2023-03-06T08:08:35.985Z,36.67
2023-03-06T08:09:35.979Z,36.56
2023-03-06T08:10:35.972Z,36.82
2023-03-06T08:11:36.086Z,36.71
2023-03-06T08:12:35.952Z,36.96
2023-03-06T08:13:35.990Z,37.14
2023-03-06T08:14:35.935Z,37.03
2023-03-06T08:15:35.923Z,37.48
2023-03-06T08:16:34.935Z,37.49
2023-03-06T08:17:35.902Z,36.99
2023-03-06T08:18:35.919Z,37.44
2023-03-06T08:19:35.924Z,37.35
2023-03-06T08:20:35.950Z,37.19
2023-03-06T08:21:35.997Z,37.50
2023-03-06T08:22:36.057Z,37.32
2023-03-06T08:24:36.174Z,37.50
2023-03-06T08:25:36.242Z,37.78
2023-03-06T08:26:36.299Z,37.83
2023-03-06T08:27:35.390Z,37.75
2023-03-06T08:28:36.419Z,37.77
2023-03-06T08:29:36.469Z,33.10
2023-03-06T08:30:35.518Z,32.64
2023-03-06T08:31:36.636Z,33.80
2023-03-06T08:32:36.724Z,35.10
2023-03-06T08:33:36.640Z,35.56
2023-03-06T08:34:36.717Z,35.58
2023-03-06T08:35:36.775Z,35.63
2023-03-06T08:36:36.791Z,35.63
2023-03-06T08:37:36.894Z,35.60
2023-03-06T08:38:35.872Z,35.55
2023-03-06T08:39:36.906Z,35.53
2023-03-06T08:40:35.911Z,35.45
2023-03-06T08:41:36.914Z,35.35
2023-03-06T08:42:36.931Z,35.46
2023-03-06T08:43:36.972Z,35.33
2023-03-06T08:44:36.936Z,35.43
2023-03-06T08:45:37.061Z,35.38
2023-03-06T08:46:36.926Z,35.52
2023-03-06T08:47:36.918Z,35.67
2023-03-06T08:48:36.036Z,35.75
2023-03-06T08:49:36.919Z,35.80
2023-03-06T08:50:36.938Z,35.66
2023-03-06T08:51:36.901Z,35.63
2023-03-06T08:52:35.906Z,35.65
2023-03-06T08:53:43.270Z,35.65
2023-03-06T08:54:36.907Z,35.44
2023-03-06T08:55:35.902Z,35.43
2023-03-06T08:56:36.895Z,35.44
2023-03-06T08:57:36.891Z,35.45
2023-03-06T08:58:35.875Z,35.41
2023-03-06T08:59:35.900Z,35.34
2023-03-06T09:00:36.881Z,35.44
2023-03-06T09:01:36.940Z,35.42
2023-03-06T09:02:36.895Z,35.47
2023-03-06T09:03:36.873Z,35.43
2023-03-06T09:04:36.836Z,35.36
2023-03-06T09:05:36.828Z,35.30
2023-03-06T09:06:36.828Z,35.30
2023-03-06T09:07:36.833Z,35.27
2023-03-06T09:10:36.881Z,35.13
2023-03-06T09:11:36.781Z,35.05
2023-03-06T09:12:47.518Z,35.07
2023-03-06T09:13:36.787Z,35.08
2023-03-06T09:14:35.754Z,34.90
2023-03-06T09:15:36.759Z,34.91
2023-03-06T09:16:35.807Z,34.87
2023-03-06T09:17:36.761Z,34.82
2023-03-06T09:18:36.770Z,34.80
2023-03-06T09:19:36.748Z,34.73
2023-03-06T09:31:36.652Z,34.31
2023-03-06T09:32:36.644Z,34.19
2023-03-06T09:33:36.623Z,34.22
2023-03-06T09:34:36.604Z,34.13
2023-03-06T09:35:36.658Z,34.04
2023-03-06T09:36:53.335Z,33.95
2023-03-06T09:37:36.585Z,34.00
2023-03-06T09:38:36.574Z,33.91
2023-03-06T09:39:36.562Z,33.91
2023-03-06T09:40:36.556Z,33.87
2023-03-06T09:41:36.593Z,33.83
2023-03-06T09:42:37.073Z,33.76
2023-03-06T09:43:36.547Z,33.78
2023-03-06T09:44:36.524Z,33.94
2023-03-06T09:45:36.521Z,34.05
2023-03-06T09:46:36.528Z,34.45
2023-03-06T09:47:36.528Z,34.42
2023-03-06T09:48:36.498Z,33.76
2023-03-06T09:49:36.499Z,34.03
2023-03-06T09:50:36.514Z,34.06
2023-03-06T09:51:36.467Z,34.09
2023-03-06T09:52:36.473Z,34.36
2023-03-06T09:53:36.464Z,34.21
2023-03-06T09:54:36.462Z,34.29
2023-03-06T09:55:36.467Z,34.52
2023-03-06T09:56:36.440Z,34.72
2023-03-06T09:57:36.460Z,34.88
2023-03-06T09:58:36.561Z,34.95
2023-03-06T09:59:36.416Z,35.02
2023-03-06T10:00:35.408Z,35.48
2023-03-06T10:01:35.396Z,35.20
2023-03-06T10:02:35.513Z,35.39
2023-03-06T10:03:36.413Z,35.33
2023-03-06T10:04:36.513Z,35.41
2023-03-06T10:05:36.365Z,35.29
2023-03-06T10:06:36.356Z,35.49
2023-03-06T10:07:36.340Z,35.40
2023-03-06T10:08:36.354Z,35.47
2023-03-06T10:09:35.369Z,35.77
2023-03-06T10:10:35.401Z,35.99
2023-03-06T10:11:36.481Z,35.82
2023-03-06T10:12:35.483Z,35.93
2023-03-06T10:13:36.536Z,35.87
2023-03-06T10:14:36.617Z,36.13
2023-03-06T10:15:36.651Z,36.18
2023-03-06T10:16:36.640Z,36.22
2023-03-06T10:17:35.682Z,36.17
2023-03-06T10:18:36.725Z,36.18
2023-03-06T10:19:36.789Z,36.52
2023-03-06T10:20:36.766Z,36.52
2023-03-06T10:21:36.814Z,36.50
2023-03-06T10:22:35.829Z,36.77
2023-03-06T10:23:36.873Z,36.85
2023-03-06T10:24:36.881Z,36.87
2023-03-06T10:25:36.896Z,36.86
2023-03-06T10:26:37.028Z,36.88
2023-03-06T10:27:36.950Z,36.78
2023-03-06T10:28:35.985Z,36.77
2023-03-06T10:29:38.491Z,37.14
2023-03-06T10:30:36.017Z,37.12
2023-03-06T10:31:37.048Z,36.82
2023-03-06T10:32:48.373Z,37.04
2023-03-06T10:33:37.058Z,37.23
2023-03-06T10:34:37.035Z,37.35
2023-03-06T10:35:37.149Z,37.27
2023-03-06T10:36:37.023Z,37.23
2023-03-06T10:37:36.008Z,37.50
2023-03-06T10:38:37.017Z,37.68
2023-03-06T10:39:36.014Z,37.63
2023-03-06T10:40:36.991Z,37.74
2023-03-06T10:41:36.981Z,37.72
2023-03-06T10:42:36.974Z,37.73
2023-03-06T10:43:36.975Z,37.46
2023-03-06T10:44:36.980Z,37.69
2023-03-06T10:45:48.641Z,37.71
2023-03-06T10:46:37.065Z,37.54
2023-03-06T10:47:36.936Z,37.54
2023-03-06T10:48:35.941Z,31.13
2023-03-06T10:49:37.065Z,31.82
2023-03-06T10:50:36.920Z,33.47
2023-03-06T10:52:35.922Z,35.19
2023-03-06T10:53:35.927Z,34.98
2023-03-06T10:54:36.089Z,35.11
2023-03-06T10:55:36.890Z,35.04
2023-03-06T10:56:36.889Z,35.15
2023-03-06T10:57:36.875Z,35.45
2023-03-06T10:59:36.873Z,35.39
2023-03-06T11:00:36.846Z,35.50
2023-03-06T11:01:36.891Z,35.42
2023-03-06T11:02:36.835Z,35.55
2023-03-06T11:03:36.904Z,35.59
2023-03-06T11:04:35.908Z,35.67
2023-03-06T11:05:36.922Z,35.71
2023-03-06T11:06:35.943Z,35.79
2023-03-06T11:07:37.011Z,35.82
2023-03-06T11:08:36.976Z,35.70
2023-03-06T11:09:37.022Z,35.60
2023-03-06T11:11:38.058Z,35.72
2023-03-06T11:12:37.074Z,35.75
2023-03-06T11:13:37.069Z,35.92
2023-03-06T11:14:37.112Z,35.80
2023-03-06T11:15:37.098Z,35.70
2023-03-06T11:16:37.119Z,35.75
2023-03-06T11:17:37.141Z,35.67
2023-03-06T11:18:37.136Z,35.94
2023-03-06T11:19:37.165Z,35.83
2023-03-06T11:20:50.420Z,35.74
2023-03-06T11:21:37.162Z,35.99
2023-03-06T11:22:37.157Z,35.89
2023-03-06T11:23:36.218Z,36.02
2023-03-06T11:24:37.146Z,35.90
2023-03-06T11:25:37.156Z,35.98
2023-03-06T11:26:37.144Z,36.01
2023-03-06T11:27:37.126Z,36.13
2023-03-06T11:28:37.120Z,36.12
2023-03-06T11:29:38.856Z,36.13
2023-03-06T11:30:37.099Z,36.29
2023-03-06T11:31:37.128Z,36.42
2023-03-06T11:32:36.145Z,36.43
2023-03-06T11:33:37.082Z,36.32
2023-03-06T11:34:37.094Z,36.33
2023-03-06T11:35:37.092Z,36.29
2023-03-06T11:36:37.056Z,36.25
2023-03-06T11:37:37.047Z,36.42
2023-03-06T11:38:37.057Z,36.38
2023-03-06T11:39:37.126Z,36.30
2023-03-06T11:40:36.025Z,36.25
2023-03-06T11:41:37.049Z,36.42
2023-03-06T11:42:37.008Z,36.26
2023-03-06T11:43:37.005Z,36.19
2023-03-06T11:44:37.002Z,36.14
2023-03-06T11:45:36.996Z,36.18
2023-03-06T11:46:37.020Z,36.25
2023-03-06T11:47:36.993Z,36.24
2023-03-06T11:48:37.001Z,36.21
2023-03-06T11:49:36.959Z,36.28
2023-03-06T11:50:36.950Z,36.32
2023-03-06T11:51:36.937Z,36.26
2023-03-06T11:52:36.948Z,36.19
2023-03-06T11:53:35.927Z,36.18
2023-03-06T11:54:36.933Z,36.10
2023-03-06T11:55:36.954Z,36.12
2023-03-06T11:56:35.899Z,35.94
2023-03-06T11:57:36.907Z,35.83
2023-03-06T11:58:36.892Z,35.88
2023-03-06T11:59:36.894Z,35.68
2023-03-06T12:00:36.885Z,35.62
2023-03-06T12:01:36.891Z,35.48
2023-03-06T12:02:36.857Z,35.36
2023-03-06T12:03:36.870Z,35.28
2023-03-06T12:04:36.852Z,35.32
2023-03-06T12:05:36.903Z,35.13
2023-03-06T12:06:36.829Z,35.26
2023-03-06T12:07:35.837Z,35.05
2023-03-06T12:08:36.840Z,34.79
2023-03-06T12:09:35.825Z,34.83
2023-03-06T12:10:36.815Z,34.48
2023-03-06T12:11:36.820Z,34.43
2023-03-06T12:12:36.787Z,34.30
2023-03-06T12:13:36.778Z,34.34
2023-03-06T12:14:36.767Z,34.25
2023-03-06T12:15:36.792Z,34.25
2023-03-06T12:16:35.829Z,34.11
2023-03-06T12:17:36.765Z,34.01
2023-03-06T12:18:36.759Z,33.80
2023-03-06T12:19:36.738Z,33.73
2023-03-06T12:20:36.723Z,33.66
2023-03-06T12:21:36.715Z,33.55
2023-03-06T12:22:36.725Z,33.45
2023-03-06T12:23:36.713Z,33.45
2023-03-06T12:24:36.702Z,33.17
2023-03-06T12:25:36.698Z,33.22
2023-03-06T12:26:36.735Z,33.14
2023-03-06T12:27:36.719Z,33.06
2023-03-06T12:28:36.664Z,33.25
2023-03-06T12:29:36.660Z,33.13
2023-03-06T12:30:35.649Z,32.88
2023-03-06T12:31:35.675Z,32.79
2023-03-06T12:32:36.741Z,32.73
2023-03-06T12:33:36.630Z,32.74
2023-03-06T12:34:36.622Z,32.53
2023-03-06T12:35:35.690Z,32.41
2023-03-06T12:36:36.642Z,32.32
2023-03-06T12:37:36.663Z,32.13
2023-03-06T12:38:36.669Z,32.19
2023-03-06T12:39:36.145Z,32.15
2023-03-06T12:40:36.706Z,32.24
2023-03-06T12:41:36.735Z,32.26
2023-03-06T12:42:36.754Z,32.18
2023-03-06T12:43:38.930Z,32.15
2023-03-06T12:44:36.801Z,32.18
2023-03-06T12:45:37.029Z,32.09
2023-03-06T12:46:35.757Z,31.98
2023-03-06T12:47:36.736Z,31.90
2023-03-06T12:48:36.725Z,31.82
2023-03-06T12:49:36.727Z,31.78
2023-03-06T12:50:36.734Z,31.81
2023-03-06T12:51:36.720Z,31.85
2023-03-06T13:02:36.666Z,30.48
2023-03-06T13:03:35.614Z,30.55
2023-03-06T13:06:41.983Z,30.15
2023-03-06T13:09:36.598Z,29.37
2023-03-06T14:27:37.681Z,32.53
2023-03-06T14:28:37.730Z,32.63
2023-03-06T14:29:37.779Z,32.54
2023-03-06T14:31:36.951Z,32.67
2023-03-06T14:32:36.956Z,32.77
2023-03-06T14:33:37.999Z,32.79
2023-03-06T14:34:38.053Z,32.82
2023-03-06T14:35:38.185Z,32.98
2023-03-06T14:36:38.122Z,33.13
2023-03-06T14:37:38.181Z,33.16
2023-03-06T14:38:38.212Z,33.16
2023-03-06T14:39:38.275Z,33.29
2023-03-06T14:40:38.297Z,33.39
2023-03-06T14:41:38.325Z,33.46
2023-03-06T14:42:38.374Z,33.48
2023-03-06T14:43:38.407Z,33.48
2023-03-06T14:44:38.454Z,33.56
2023-03-06T14:46:37.618Z,33.63
2023-03-06T14:47:38.558Z,33.75
2023-03-06T14:48:38.599Z,33.99
2023-03-06T14:49:38.614Z,33.92
2023-03-06T14:50:40.325Z,34.30
2023-03-06T14:51:38.658Z,33.92
2023-03-06T14:52:38.630Z,34.01
2023-03-06T14:53:37.632Z,34.17
2023-03-06T14:54:38.622Z,34.48
2023-03-06T14:55:37.631Z,34.30
2023-03-06T14:56:38.598Z,34.34
2023-03-06T14:57:38.585Z,34.46
2023-03-06T14:58:38.595Z,34.46
2023-03-06T14:59:38.576Z,34.41
2023-03-06T15:00:38.609Z,34.40
2023-03-06T15:01:38.648Z,34.37
2023-03-06T15:02:38.613Z,34.38
2023-03-06T15:03:37.555Z,34.32
2023-03-06T15:04:38.545Z,34.40
2023-03-06T15:05:38.548Z,34.42
2023-03-06T15:06:38.622Z,34.33
2023-03-06T15:07:37.549Z,34.38
2023-03-06T15:08:38.524Z,34.37
2023-03-06T15:09:37.506Z,34.30
2023-03-06T15:10:38.498Z,34.34
2023-03-06T15:11:38.485Z,34.37
2023-03-06T15:12:38.577Z,34.36
2023-03-06T15:13:38.474Z,34.33
2023-03-06T15:14:37.466Z,34.32
2023-03-06T15:15:37.470Z,34.29
2023-03-06T15:16:38.543Z,34.38
2023-03-06T15:17:38.553Z,34.50
2023-03-06T15:18:39.018Z,34.37
2023-03-06T15:19:38.659Z,34.46
2023-03-06T15:20:38.720Z,34.37
2023-03-06T15:21:38.790Z,34.34
2023-03-06T15:22:38.865Z,34.33
2023-03-06T15:23:37.957Z,34.40
2023-03-06T15:24:38.958Z,34.75
2023-03-06T15:25:38.014Z,34.52
2023-03-06T15:28:39.188Z,34.75
2023-03-06T15:29:39.253Z,34.78
2023-03-06T15:30:39.310Z,34.81
2023-03-06T15:31:39.400Z,34.82
2023-03-06T15:32:39.439Z,34.95
2023-03-06T15:33:39.452Z,34.93
2023-03-06T15:34:39.532Z,35.13
2023-03-06T15:35:39.620Z,35.06
2023-03-06T15:36:39.609Z,35.01
2023-03-06T15:37:38.656Z,35.22
2023-03-06T15:38:39.695Z,35.18
2023-03-06T15:39:39.778Z,35.37
2023-03-06T15:43:39.964Z,35.41
2023-03-06T15:44:38.995Z,35.50
2023-03-06T15:45:40.095Z,35.55
2023-03-06T15:46:40.098Z,35.62
2023-03-06T15:47:40.162Z,35.67
2023-03-06T15:48:39.208Z,35.81
2023-03-06T15:49:40.268Z,35.76
2023-03-06T15:50:40.440Z,35.84
2023-03-06T15:51:40.360Z,35.94
2023-03-06T15:52:40.392Z,35.89
2023-03-06T15:53:40.438Z,35.78
2023-03-06T15:54:40.504Z,35.93
2023-03-06T15:55:40.574Z,35.81
2023-03-06T15:56:39.588Z,36.04
2023-03-06T15:57:39.652Z,35.99
2023-03-06T15:58:40.737Z,36.24
2023-03-06T15:59:40.750Z,36.25
2023-03-06T16:00:40.810Z,36.27
2023-03-06T16:01:40.840Z,36.20
2023-03-06T16:02:40.881Z,36.33
2023-03-06T16:03:40.931Z,36.41
2023-03-06T16:04:40.988Z,36.43
2023-03-06T16:05:41.030Z,36.50
2023-03-06T16:06:41.083Z,36.39
2023-03-06T16:07:41.127Z,36.37
2023-03-06T16:08:40.169Z,36.45
2023-03-06T16:09:40.233Z,36.44
2023-03-06T16:10:41.297Z,36.51
2023-03-06T16:11:43.923Z,36.63
2023-03-06T16:12:40.340Z,36.64
2023-03-06T16:13:41.336Z,36.62
2023-03-06T16:14:40.338Z,36.53
2023-03-06T16:15:40.329Z,36.44
2023-03-06T16:16:41.453Z,36.48
2023-03-06T16:17:41.298Z,36.56
2023-03-06T16:18:41.283Z,36.57
2023-03-06T16:19:41.283Z,36.60
2023-03-06T16:20:41.284Z,36.57
2023-03-06T16:21:41.278Z,36.64
2023-03-06T16:22:41.256Z,36.78
2023-03-06T16:23:41.239Z,37.07
2023-03-06T16:24:41.245Z,37.45
2023-03-06T16:25:41.222Z,37.70
2023-03-06T16:26:41.223Z,37.41
2023-03-06T16:27:41.239Z,37.53
2023-03-06T16:28:41.222Z,37.64
2023-03-06T16:29:40.204Z,37.59
2023-03-06T16:31:59.556Z,37.92
2023-03-06T16:33:00.332Z,37.95
2023-03-06T16:34:00.259Z,37.88
2023-03-06T16:35:00.257Z,38.09
2023-03-06T16:35:59.268Z,37.97
2023-03-06T16:37:00.222Z,38.12
2023-03-06T16:38:00.256Z,38.10
2023-03-06T16:39:00.227Z,38.28
2023-03-06T16:40:00.216Z,38.35
2023-03-06T16:41:00.247Z,38.49
2023-03-06T16:41:59.216Z,38.40
2023-03-06T16:42:59.251Z,38.65
2023-03-06T16:44:00.181Z,38.83
2023-03-06T16:45:00.184Z,38.78
2023-03-06T16:46:00.195Z,38.88
2023-03-06T16:47:00.185Z,38.77
2023-03-06T16:48:00.456Z,38.95
2023-03-06T16:49:00.179Z,38.96
2023-03-06T16:50:00.240Z,39.15
2023-03-06T16:51:00.137Z,39.27
2023-03-06T16:52:00.122Z,39.13
2023-03-06T16:53:00.153Z,39.30
2023-03-06T16:54:00.117Z,39.33
2023-03-06T16:54:59.112Z,39.27
2023-03-06T16:56:00.176Z,39.23
2023-03-06T16:57:00.114Z,39.63
2023-03-06T16:58:00.129Z,39.38
2023-03-06T16:59:00.118Z,39.48
2023-03-06T16:59:59.063Z,39.41
2023-03-06T17:01:00.165Z,39.40
2023-03-06T17:02:00.095Z,39.45
2023-03-06T17:03:00.088Z,39.54
2023-03-06T17:04:00.044Z,39.59
2023-03-06T17:05:00.028Z,39.58
2023-03-06T17:06:00.040Z,39.47
2023-03-06T17:07:00.030Z,39.58
2023-03-06T17:08:00.027Z,39.68
2023-03-06T17:08:59.995Z,39.60
2023-03-06T17:09:58.998Z,39.75
2023-03-06T17:10:59.992Z,39.67
2023-03-06T17:11:58.982Z,39.68
2023-03-06T17:12:59.963Z,39.62
2023-03-06T17:14:00.025Z,39.57
2023-03-06T17:15:00.049Z,39.62
2023-03-06T17:16:00.188Z,39.65
2023-03-06T17:17:00.147Z,39.64
2023-03-06T17:18:00.229Z,39.60
2023-03-06T17:19:00.219Z,39.68
2023-03-06T17:20:00.270Z,39.63
2023-03-06T17:21:00.372Z,39.75
2023-03-06T17:22:00.406Z,39.60
2023-03-06T17:23:00.428Z,39.72
2023-03-06T17:24:00.474Z,39.58
2023-03-06T17:25:00.531Z,39.62
2023-03-06T17:26:00.616Z,39.64
2023-03-06T17:26:59.654Z,39.62
2023-03-06T17:28:00.707Z,39.73
2023-03-06T17:28:59.779Z,39.59
2023-03-06T17:30:00.826Z,39.52
2023-03-06T17:31:00.957Z,39.50
2023-03-06T17:32:00.945Z,39.53
2023-03-06T17:33:01.027Z,39.49
2023-03-06T17:34:01.044Z,39.54
2023-03-06T17:35:01.125Z,39.54
2023-03-06T17:36:00.175Z,39.56
2023-03-06T17:37:01.303Z,39.44
2023-03-06T17:38:00.337Z,39.40
2023-03-06T17:39:02.105Z,39.34
2023-03-06T17:40:00.436Z,39.32
2023-03-06T17:41:01.506Z,39.39
2023-03-06T17:42:01.554Z,39.43
2023-03-06T17:43:01.606Z,39.27
2023-03-06T17:44:00.695Z,39.35
2023-03-06T17:45:01.730Z,39.36
2023-03-06T17:46:01.899Z,39.33
2023-03-06T17:47:01.853Z,39.28
2023-03-06T17:48:01.918Z,39.16
2023-03-06T17:49:01.943Z,39.28
2023-03-06T17:50:02.042Z,39.23
2023-03-06T17:51:02.144Z,39.24
2023-03-06T17:52:01.159Z,39.28
2023-03-06T17:53:02.159Z,39.23
2023-03-06T17:54:02.222Z,39.29
2023-03-06T17:55:02.273Z,39.19
2023-03-06T17:56:02.402Z,39.24
2023-03-06T17:57:02.408Z,39.20
2023-03-06T17:58:02.393Z,39.16
2023-03-06T17:59:02.433Z,39.08
2023-03-06T18:00:02.486Z,39.14
2023-03-06T18:01:02.553Z,38.90
2023-03-06T18:02:02.753Z,39.08
2023-03-06T18:03:02.672Z,38.99
2023-03-06T18:04:02.690Z,38.91
2023-03-06T18:05:01.825Z,38.89
2023-03-06T18:06:02.783Z,38.92
2023-03-06T18:07:02.806Z,39.01
2023-03-06T18:08:02.856Z,38.82
2023-03-06T18:09:02.832Z,38.89
2023-03-06T18:10:02.847Z,38.87
2023-03-06T18:11:02.870Z,38.83
2023-03-06T18:12:02.893Z,38.79
2023-03-06T18:13:02.931Z,38.71
2023-03-06T18:14:05.380Z,38.78
2023-03-06T18:15:01.939Z,38.71
2023-03-06T18:16:02.969Z,38.64
2023-03-06T18:17:02.903Z,38.62
2023-03-06T18:18:02.887Z,38.82
2023-03-06T18:19:01.912Z,38.72
2023-03-06T18:20:02.947Z,38.73
2023-03-06T18:21:02.863Z,38.69
2023-03-06T18:22:02.868Z,38.57
2023-03-06T18:23:02.869Z,38.54
2023-03-06T18:24:02.835Z,38.52
2023-03-06T18:25:01.877Z,38.50
2023-03-06T18:26:02.867Z,38.60
2023-03-06T18:27:02.825Z,38.45
2023-03-06T18:28:02.805Z,38.44
2023-03-06T18:29:02.811Z,38.51
2023-03-06T18:30:02.796Z,38.49
2023-03-06T18:31:02.786Z,38.44
2023-03-06T18:32:02.948Z,38.49
2023-03-06T18:33:02.759Z,38.37
2023-03-06T18:34:02.752Z,38.42
2023-03-06T18:35:02.777Z,38.44
2023-03-06T18:36:02.747Z,38.48
2023-03-06T18:37:02.771Z,38.22
2023-03-06T18:38:02.732Z,38.39
2023-03-06T18:39:02.721Z,38.44
2023-03-06T18:40:01.750Z,38.22
2023-03-06T18:41:02.712Z,38.34
2023-03-06T18:42:02.685Z,38.36
2023-03-06T18:43:02.710Z,38.38
2023-03-06T18:44:02.864Z,38.35
2023-03-06T18:45:02.722Z,38.26
2023-03-06T18:46:02.727Z,38.19
2023-03-06T18:47:02.721Z,38.32
2023-03-06T18:48:02.645Z,38.17
2023-03-06T18:49:02.653Z,38.27
2023-03-06T18:50:02.760Z,38.17
2023-03-06T18:51:01.668Z,38.21
2023-03-06T18:52:02.635Z,38.27
2023-03-06T18:53:02.612Z,38.18
2023-03-06T18:54:02.615Z,38.17
2023-03-06T18:55:02.681Z,38.13
2023-03-06T18:56:02.618Z,38.24
2023-03-06T18:57:01.602Z,38.12
2023-03-06T18:58:02.559Z,38.10
2023-03-06T18:59:01.616Z,38.01
2023-03-06T19:00:01.594Z,38.02
2023-03-06T19:01:02.570Z,38.05
2023-03-06T19:02:02.566Z,38.09
2023-03-06T19:03:01.569Z,38.05
2023-03-06T19:04:02.584Z,38.05
2023-03-06T19:05:01.519Z,38.16
2023-03-06T19:06:02.519Z,38.03
2023-03-06T19:07:02.535Z,38.01
2023-03-06T19:08:02.554Z,38.06
2023-03-06T19:09:02.488Z,37.98
2023-03-06T19:10:02.479Z,37.90
2023-03-06T19:11:02.483Z,38.12
2023-03-06T19:12:02.481Z,37.92
2023-03-06T19:13:02.486Z,38.03
2023-03-06T19:14:02.479Z,37.98
2023-03-06T19:15:02.458Z,38.00
2023-03-06T19:16:02.445Z,37.99
2023-03-06T19:17:01.456Z,37.95
2023-03-06T19:18:02.422Z,37.80
2023-03-06T19:19:02.459Z,37.89
2023-03-06T19:20:02.480Z,37.99
2023-03-06T19:21:02.392Z,37.88
2023-03-06T19:22:02.460Z,37.99
2023-03-06T19:23:02.417Z,37.81
2023-03-06T19:24:02.383Z,37.76
2023-03-06T19:25:03.913Z,37.79
2023-03-06T19:26:02.524Z,37.87
2023-03-06T19:27:02.512Z,37.82
2023-03-06T19:28:02.536Z,37.74
2023-03-06T19:29:02.504Z,37.75
2023-03-06T19:30:02.504Z,37.84
2023-03-06T19:31:01.506Z,37.84
2023-03-06T19:32:02.761Z,37.84
2023-03-06T19:33:02.526Z,37.76
2023-03-06T19:34:02.505Z,37.76
2023-03-06T19:35:01.510Z,37.67
2023-03-06T19:36:02.541Z,37.81
2023-03-06T19:37:01.498Z,37.81
2023-03-06T19:38:02.507Z,37.82
2023-03-06T19:39:02.533Z,37.77
2023-03-06T19:40:02.496Z,37.73
2023-03-06T19:41:02.515Z,37.82
2023-03-06T19:42:02.508Z,37.77
2023-03-06T19:43:02.510Z,37.84
2023-03-06T19:44:02.545Z,37.68
2023-03-06T19:45:02.518Z,37.76
2023-03-06T19:46:02.555Z,37.71
2023-03-06T19:47:02.542Z,37.55
2023-03-06T19:48:02.534Z,37.67
2023-03-06T19:49:01.558Z,37.71
2023-03-06T19:50:02.534Z,37.66
2023-03-06T19:51:01.522Z,37.69
2023-03-06T19:52:02.542Z,37.68
2023-03-06T19:53:02.552Z,37.71
2023-03-06T19:54:01.555Z,37.61
2023-03-06T19:55:02.600Z,37.63
2023-03-06T19:56:01.578Z,37.62
2023-03-06T19:57:06.486Z,37.63
2023-03-06T19:58:02.574Z,37.60
2023-03-06T19:59:02.576Z,37.65
2023-03-06T20:00:02.551Z,37.57
2023-03-06T20:01:02.620Z,37.61
2023-03-06T20:02:01.559Z,37.58
2023-03-06T20:03:02.597Z,37.56
2023-03-06T20:04:02.531Z,37.59
2023-03-06T20:05:01.534Z,37.52
2023-03-06T20:06:02.526Z,37.54
2023-03-06T20:07:02.512Z,37.51
2023-03-06T20:08:02.519Z,37.49
2023-03-06T20:09:02.505Z,37.57
2023-03-06T20:10:02.508Z,37.48
2023-03-06T20:11:02.501Z,37.48
2023-03-06T20:12:02.484Z,37.53
2023-03-06T20:13:03.087Z,37.37
2023-03-06T20:14:02.474Z,37.54
2023-03-06T20:15:01.452Z,37.54
2023-03-06T20:16:02.513Z,37.42
2023-03-06T20:17:02.434Z,37.39
2023-03-06T20:18:02.439Z,37.48
2023-03-06T20:19:02.099Z,37.40
2023-03-06T20:20:01.411Z,37.34
2023-03-06T20:21:02.407Z,37.40
2023-03-06T20:22:02.413Z,37.43
2023-03-06T20:23:02.399Z,37.38
2023-03-06T20:24:02.398Z,37.37
2023-03-06T20:25:02.403Z,37.38
2023-03-06T20:26:02.412Z,37.27
2023-03-06T20:27:02.466Z,37.44
2023-03-06T20:28:03.438Z,37.35
2023-03-06T20:29:01.450Z,37.24
2023-03-06T20:30:02.468Z,37.38
2023-03-06T20:31:02.518Z,37.27
2023-03-06T20:32:02.572Z,37.30
2023-03-06T20:33:01.488Z,37.34
2023-03-06T20:34:02.518Z,37.29
2023-03-06T20:35:02.521Z,37.30
2023-03-06T20:36:02.579Z,37.14
2023-03-06T20:37:02.556Z,37.21
2023-03-06T20:38:01.564Z,37.21
2023-03-06T20:39:02.597Z,37.18
2023-03-06T20:40:02.664Z,37.10
2023-03-06T20:41:02.615Z,37.16
2023-03-06T20:42:01.637Z,37.32
2023-03-06T20:43:02.709Z,37.22
2023-03-06T20:44:01.676Z,37.23
2023-03-06T20:45:02.699Z,37.22
2023-03-06T20:46:02.786Z,37.21
2023-03-06T20:47:01.733Z,37.19
2023-03-06T20:48:01.730Z,37.27
2023-03-06T20:49:02.766Z,37.12
2023-03-06T20:50:02.768Z,37.15
2023-03-06T20:51:02.791Z,37.12
2023-03-06T20:52:02.820Z,37.13
2023-03-06T20:53:02.833Z,37.08